Disney Magic — C6PT7 — position and weather

sailwx.info

Track history (hours):
 
Tides and Currents Weather Stations Pressure Air Temp Water Temp Dewpoint Dewpoint Depression Visibility Wind Speed Wind Dir Waves Ship Positions

Disney Magic

Last reported at 2017-Mar-23 01:22 UTC. Time now 2017-Mar-24 00:00 UTC.
Position N 26°10' W 079°18'.

Type: Passenger vessel. MMSI: 308516000.

Date/timePositionNaut miles runAvg speedWind from/ knotsBaromVisibWave heightAir tempDewpointWater temp
2017-Mar-23 01:22N 26°10' W 079°18'911.0
2017-Mar-23 00:33N 26°05' W 079°26'1110.8
2017-Mar-22 23:33N 26°00' W 079°37'1818.1
2017-Mar-22 22:34N 25°51' W 079°54'1413.8
2017-Mar-22 21:33N 25°46' W 080°09'2 1.6
2017-Mar-22 20:29N 25°47' W 080°10'0 0.0
2017-Mar-22 19:29N 25°47' W 080°10'0 0.0
2017-Mar-22 18:32N 25°47' W 080°10'0 0.0
2017-Mar-22 17:32N 25°47' W 080°10'0 0.0
2017-Mar-22 16:32N 25°47' W 080°10'0 0.0
2017-Mar-22 15:32N 25°47' W 080°10'0 0.0
2017-Mar-22 14:32N 25°47' W 080°10'0 0.0
2017-Mar-22 13:32N 25°47' W 080°10'0 0.0
2017-Mar-22 12:32N 25°47' W 080°10'0 0.0
2017-Mar-22 11:32N 25°47' W 080°10'0 0.0
2017-Mar-22 10:32N 25°47' W 080°10'1 1.0
2017-Mar-22 09:33N 25°46' W 080°09'8 8.1
2017-Mar-22 08:33N 25°48' W 080°01'7 7.2
2017-Mar-22 07:34N 25°52' W 079°54'8 7.8
2017-Mar-22 06:33N 25°56' W 079°47'8 8.3
2017-Mar-22 05:33N 25°60' W 079°38'9 8.6
2017-Mar-22 04:33N 26°04' W 079°30'  
2017-Mar-19 16:33N 25°52' W 079°26'9 9.3
2017-Mar-19 15:32N 25°43' W 079°27'9 8.9
2017-Mar-19 14:33N 25°34' W 079°30'10 8.8
2017-Mar-19 13:22N 25°24' W 079°33'23 0.6
2017-Mar-17 23:34N 25°27' W 079°58'1514.9
2017-Mar-17 22:34N 25°42' W 079°60'1010.4
2017-Mar-17 21:34N 25°47' W 080°10'0 0.3
2017-Mar-17 20:32N 25°47' W 080°10'0 0.0
2017-Mar-17 19:26N 25°47' W 080°10'0 0.0
2017-Mar-17 18:32N 25°47' W 080°10'0 0.0
2017-Mar-17 17:32N 25°47' W 080°10'0 0.0
2017-Mar-17 16:32N 25°47' W 080°10'0 0.0
2017-Mar-17 15:32N 25°47' W 080°10'0 0.0
2017-Mar-17 14:32N 25°47' W 080°10'0 0.0
2017-Mar-17 13:29N 25°47' W 080°10'0 0.0
2017-Mar-17 12:29N 25°47' W 080°10'0 0.0
2017-Mar-17 11:26N 25°47' W 080°10'0 0.0
2017-Mar-17 10:32N 25°47' W 080°10'0 0.4
2017-Mar-17 09:33N 25°47' W 080°11'7 7.0
2017-Mar-17 08:33N 25°47' W 080°03'7 7.1
2017-Mar-17 07:33N 25°50' W 079°56'7 7.4
2017-Mar-17 06:33N 25°54' W 079°49'8 8.1
2017-Mar-17 05:33N 25°58' W 079°42'9 8.7
2017-Mar-17 04:33N 26°03' W 079°33'12 0.6
2017-Mar-16 07:23N 25°55' W 079°24'1922.7
2017-Mar-16 06:34N 25°37' W 079°27'37913.3
2017-Mar-15 02:00N 20°00' W 082°36'91 3.6 350 / 151021.210.8 26.020.227.2
2017-Mar-14 01:00N 20°54' W 083°54'   160 / 151015.210.8 25.817.927.2
Track history (hours):
 
Tides and Currents Weather Stations Pressure Air Temp Water Temp Dewpoint Dewpoint Depression Visibility Wind Speed Wind Dir Waves Ship Positions

Disney Magic

Last reported at 2017-Mar-23 01:22 UTC. Time now 2017-Mar-24 00:00 UTC.
Position N 26°10' W 079°18'.

Type: Passenger vessel. MMSI: 308516000.

Date/timePositionNaut miles runAvg speedWind from/ knotsBaromVisibWave heightAir tempDewpointWater temp
2017-Mar-23 01:22N 26°10' W 079°18'911.0
2017-Mar-23 00:33N 26°05' W 079°26'1110.8
2017-Mar-22 23:33N 26°00' W 079°37'1818.1
2017-Mar-22 22:34N 25°51' W 079°54'1413.8
2017-Mar-22 21:33N 25°46' W 080°09'2 1.6
2017-Mar-22 20:29N 25°47' W 080°10'0 0.0
2017-Mar-22 19:29N 25°47' W 080°10'0 0.0
2017-Mar-22 18:32N 25°47' W 080°10'0 0.0
2017-Mar-22 17:32N 25°47' W 080°10'0 0.0
2017-Mar-22 16:32N 25°47' W 080°10'0 0.0
2017-Mar-22 15:32N 25°47' W 080°10'0 0.0
2017-Mar-22 14:32N 25°47' W 080°10'0 0.0
2017-Mar-22 13:32N 25°47' W 080°10'0 0.0
2017-Mar-22 12:32N 25°47' W 080°10'0 0.0
2017-Mar-22 11:32N 25°47' W 080°10'0 0.0
2017-Mar-22 10:32N 25°47' W 080°10'1 1.0
2017-Mar-22 09:33N 25°46' W 080°09'8 8.1
2017-Mar-22 08:33N 25°48' W 080°01'7 7.2
2017-Mar-22 07:34N 25°52' W 079°54'8 7.8
2017-Mar-22 06:33N 25°56' W 079°47'8 8.3
2017-Mar-22 05:33N 25°60' W 079°38'9 8.6
2017-Mar-22 04:33N 26°04' W 079°30'  
2017-Mar-19 16:33N 25°52' W 079°26'9 9.3
2017-Mar-19 15:32N 25°43' W 079°27'9 8.9
2017-Mar-19 14:33N 25°34' W 079°30'10 8.8
2017-Mar-19 13:22N 25°24' W 079°33'23 0.6
2017-Mar-17 23:34N 25°27' W 079°58'1514.9
2017-Mar-17 22:34N 25°42' W 079°60'1010.4
2017-Mar-17 21:34N 25°47' W 080°10'0 0.3
2017-Mar-17 20:32N 25°47' W 080°10'0 0.0
2017-Mar-17 19:26N 25°47' W 080°10'0 0.0
2017-Mar-17 18:32N 25°47' W 080°10'0 0.0
2017-Mar-17 17:32N 25°47' W 080°10'0 0.0
2017-Mar-17 16:32N 25°47' W 080°10'0 0.0
2017-Mar-17 15:32N 25°47' W 080°10'0 0.0
2017-Mar-17 14:32N 25°47' W 080°10'0 0.0
2017-Mar-17 13:29N 25°47' W 080°10'0 0.0
2017-Mar-17 12:29N 25°47' W 080°10'0 0.0
2017-Mar-17 11:26N 25°47' W 080°10'0 0.0
2017-Mar-17 10:32N 25°47' W 080°10'0 0.4
2017-Mar-17 09:33N 25°47' W 080°11'7 7.0
2017-Mar-17 08:33N 25°47' W 080°03'7 7.1
2017-Mar-17 07:33N 25°50' W 079°56'7 7.4
2017-Mar-17 06:33N 25°54' W 079°49'8 8.1
2017-Mar-17 05:33N 25°58' W 079°42'9 8.7
2017-Mar-17 04:33N 26°03' W 079°33'12 0.6
2017-Mar-16 07:23N 25°55' W 079°24'1922.7
2017-Mar-16 06:34N 25°37' W 079°27'37913.3
2017-Mar-15 02:00N 20°00' W 082°36'91 3.6 350 / 151021.210.8 26.020.227.2
2017-Mar-14 01:00N 20°54' W 083°54'   160 / 151015.210.8 25.817.927.2

Dump ship's entire track history